Time;durP1;ratioP1;P1;durP2;ratioP2;P2;SDS_P1;SDS_P2;PMS_P1;PMS_P2;Temp;Humidity;BMP_temperature;BMP_pressure;BME280_temperature;BME280_humidity;BME280_pressure;Samples;Min_cycle;Max_cycle;Signal;HPM_P1;HPM_P2
2023/11/13 00:02:10;;;;;;;0.70;0.70;;;-0.50;99.90;;;;;;5089514;28;20675;-70
2023/11/13 00:04:37;;;;;;;0.70;0.70;;;-0.50;99.90;;;;;;5089456;28;20262;-71
2023/11/13 00:07:03;;;;;;;0.70;0.70;;;-0.50;99.90;;;;;;5089297;28;20224;-70
2023/11/13 00:09:29;;;;;;;0.70;0.70;;;-0.50;99.90;;;;;;5085892;28;20212;-69
2023/11/13 00:11:55;;;;;;;0.70;0.70;;;-0.60;99.90;;;;;;5069346;28;20268;-70
2023/11/13 00:14:21;;;;;;;0.60;0.60;;;-0.60;99.90;;;;;;5068912;28;20310;-70
2023/11/13 00:16:47;;;;;;;0.60;0.60;;;-0.50;99.90;;;;;;5069295;28;20196;-70
2023/11/13 00:19:13;;;;;;;0.70;0.70;;;-0.50;99.90;;;;;;5069340;28;20192;-69
2023/11/13 00:21:38;;;;;;;0.70;0.70;;;-0.50;99.90;;;;;;5050882;28;20199;-70
2023/11/13 00:24:05;;;;;;;0.70;0.70;;;-0.50;99.90;;;;;;5069140;28;20193;-69
2023/11/13 00:26:31;;;;;;;0.60;0.60;;;-0.50;99.90;;;;;;5069033;28;20205;-68
2023/11/13 00:28:57;;;;;;;0.60;0.60;;;-0.40;99.90;;;;;;5069124;28;20284;-70
2023/11/13 00:31:23;;;;;;;0.70;0.70;;;-0.40;99.90;;;;;;5050657;28;20228;-69
2023/11/13 00:33:49;;;;;;;0.70;0.70;;;-0.30;99.90;;;;;;5069161;28;20231;-70
2023/11/13 00:36:16;;;;;;;0.70;0.70;;;-0.30;99.90;;;;;;5069299;28;20283;-69
2023/11/13 00:38:42;;;;;;;0.50;0.50;;;-0.20;99.90;;;;;;5050965;28;20280;-70
2023/11/13 00:41:11;;;;;;;0.60;0.60;;;-0.20;99.90;;;;;;5065741;28;20299;-69
2023/11/13 00:43:37;;;;;;;0.80;0.80;;;-0.10;99.90;;;;;;5067852;28;20193;-69
2023/11/13 00:46:03;;;;;;;0.60;0.60;;;-0.20;99.90;;;;;;5069264;28;20560;-70
2023/11/13 00:48:29;;;;;;;0.60;0.60;;;-0.10;99.90;;;;;;5068851;28;20201;-68
2023/11/13 00:50:56;;;;;;;0.70;0.70;;;-0.10;99.90;;;;;;5067468;28;20209;-68
2023/11/13 00:53:21;;;;;;;0.60;0.60;;;-0.10;99.90;;;;;;5068711;28;20686;-70
2023/11/13 00:55:48;;;;;;;0.63;0.63;;;-0.10;99.90;;;;;;5072842;28;20220;-70
2023/11/13 00:58:15;;;;;;;0.70;0.70;;;-0.10;99.90;;;;;;5088628;28;20204;-69
2023/11/13 01:00:40;;;;;;;0.70;0.70;;;-0.10;99.90;;;;;;5050655;28;20207;-70
2023/11/13 01:03:06;;;;;;;0.70;0.70;;;-0.10;99.90;;;;;;5068820;28;20664;-71
2023/11/13 01:05:33;;;;;;;0.60;0.60;;;-0.10;99.90;;;;;;5071303;28;20287;-71
2023/11/13 01:07:58;;;;;;;0.70;0.70;;;-0.10;99.90;;;;;;5068763;28;20196;-70
2023/11/13 01:10:25;;;;;;;0.60;0.60;;;-0.10;99.90;;;;;;5069172;28;20189;-71
2023/11/13 01:12:50;;;;;;;0.60;0.60;;;0.00;99.90;;;;;;5072581;28;20212;-70
2023/11/13 01:15:16;;;;;;;0.55;0.55;;;0.00;99.90;;;;;;5072568;28;20240;-69
2023/11/13 01:17:42;;;;;;;0.80;0.80;;;-0.10;99.90;;;;;;5072287;28;20205;-70
2023/11/13 01:20:08;;;;;;;0.60;0.60;;;0.00;99.90;;;;;;5072621;28;20196;-70
2023/11/13 01:22:34;;;;;;;0.70;0.70;;;0.00;99.90;;;;;;5072782;28;20209;-70
2023/11/13 01:25:00;;;;;;;0.75;0.75;;;0.00;99.90;;;;;;5072681;28;20193;-71
2023/11/13 01:27:26;;;;;;;0.70;0.70;;;-0.10;99.90;;;;;;5054472;28;20235;-70
2023/11/13 01:29:52;;;;;;;0.70;0.70;;;-0.10;99.90;;;;;;5072576;28;20237;-69
2023/11/13 01:32:17;;;;;;;0.80;0.80;;;-0.10;99.90;;;;;;5072436;28;20224;-70
2023/11/13 01:34:43;;;;;;;0.65;0.65;;;0.00;99.90;;;;;;5072134;28;20201;-69
2023/11/13 01:37:09;;;;;;;0.93;0.85;;;-0.10;99.90;;;;;;5088488;28;20200;-70
2023/11/13 01:39:35;;;;;;;0.60;0.60;;;-0.10;99.90;;;;;;5092353;28;20333;-71
2023/11/13 01:42:01;;;;;;;0.70;0.70;;;-0.10;99.90;;;;;;5092219;28;20197;-70
2023/11/13 01:44:27;;;;;;;0.70;0.70;;;-0.10;99.90;;;;;;5092017;28;20200;-70
2023/11/13 01:46:53;;;;;;;0.77;0.77;;;-0.10;99.90;;;;;;5092237;28;20264;-70
2023/11/13 01:49:19;;;;;;;0.73;0.73;;;-0.10;99.90;;;;;;5091987;28;20208;-69
2023/11/13 01:51:47;;;;;;;0.70;0.70;;;-0.10;99.90;;;;;;5091788;28;20192;-69
2023/11/13 01:54:15;;;;;;;0.75;0.75;;;-0.20;99.90;;;;;;5091912;28;20755;-69
2023/11/13 01:56:43;;;;;;;0.70;0.70;;;-0.20;99.90;;;;;;5069950;28;20305;-70
2023/11/13 01:59:12;;;;;;;0.70;0.70;;;-0.20;99.90;;;;;;5071612;28;20191;-69
2023/11/13 02:01:39;;;;;;;0.70;0.70;;;-0.20;99.90;;;;;;5071560;28;20326;-70
2023/11/13 02:04:06;;;;;;;0.65;0.65;;;-0.20;99.90;;;;;;5071627;28;20735;-69
2023/11/13 02:06:31;;;;;;;0.60;0.60;;;-0.20;99.90;;;;;;5071260;28;20201;-69
2023/11/13 02:08:57;;;;;;;0.60;0.60;;;-0.20;99.90;;;;;;5071491;28;20199;-69
2023/11/13 02:11:25;;;;;;;0.70;0.70;;;-0.20;99.90;;;;;;5071300;28;20288;-68
2023/11/13 02:13:53;;;;;;;0.70;0.70;;;-0.20;99.90;;;;;;5071317;28;20215;-69
2023/11/13 02:16:19;;;;;;;0.70;0.70;;;-0.20;99.90;;;;;;5070781;28;20189;-70
2023/11/13 02:18:45;;;;;;;0.70;0.70;;;-0.20;99.90;;;;;;5071069;28;20319;-69
2023/11/13 02:21:11;;;;;;;0.80;0.80;;;-0.20;99.90;;;;;;5070363;28;20276;-69
2023/11/13 02:23:36;;;;;;;0.70;0.70;;;-0.20;99.90;;;;;;5070794;28;20201;-70
2023/11/13 02:26:14;;;;;;;0.50;0.50;;;-0.30;99.90;;;;;;5071130;28;20292;-69
2023/11/13 02:28:40;;;;;;;0.70;0.70;;;-0.30;99.90;;;;;;5071075;28;20643;-69
2023/11/13 02:31:06;;;;;;;0.70;0.70;;;-0.30;99.90;;;;;;5070947;28;20258;-69
2023/11/13 02:33:32;;;;;;;0.70;0.70;;;-0.30;99.90;;;;;;5070769;28;20353;-69
2023/11/13 02:35:57;;;;;;;1.85;1.02;;;-0.30;99.90;;;;;;5070962;28;20211;-69
2023/11/13 02:38:23;;;;;;;0.60;0.60;;;-0.40;99.90;;;;;;5070782;28;20201;-69
2023/11/13 02:40:48;;;;;;;0.68;0.68;;;-0.40;99.90;;;;;;5070911;28;20259;-69
2023/11/13 02:43:14;;;;;;;0.60;0.60;;;-0.50;99.90;;;;;;5070890;28;20663;-70
2023/11/13 02:45:40;;;;;;;0.70;0.70;;;-0.50;99.90;;;;;;5070686;28;20657;-69
2023/11/13 02:48:06;;;;;;;0.80;0.80;;;-0.60;99.90;;;;;;5070658;28;20211;-69
2023/11/13 02:50:31;;;;;;;0.80;0.80;;;-0.60;99.90;;;;;;5070418;28;20434;-69
2023/11/13 02:52:58;;;;;;;0.70;0.70;;;-0.60;99.90;;;;;;5051904;28;20225;-70
2023/11/13 02:55:24;;;;;;;0.77;0.77;;;-0.70;99.90;;;;;;5050141;28;20221;-69
2023/11/13 02:57:52;;;;;;;0.60;0.60;;;-0.70;99.90;;;;;;5050564;28;20672;-70
2023/11/13 03:00:19;;;;;;;0.85;0.85;;;-0.70;99.90;;;;;;5070623;28;20196;-69
2023/11/13 03:02:48;;;;;;;0.70;0.70;;;-0.80;99.90;;;;;;5070627;28;20185;-70
2023/11/13 03:05:14;;;;;;;0.70;0.70;;;-0.80;99.90;;;;;;5070313;28;20196;-69
2023/11/13 03:07:40;;;;;;;0.60;0.60;;;-0.80;99.90;;;;;;5070273;28;20528;-69
2023/11/13 03:10:06;;;;;;;0.68;0.68;;;-0.90;99.90;;;;;;5070337;28;20280;-69
2023/11/13 03:12:31;;;;;;;0.70;0.70;;;-0.90;99.90;;;;;;5070155;28;20276;-70
2023/11/13 03:14:57;;;;;;;0.75;0.75;;;-0.90;99.90;;;;;;5070235;28;20714;-69
2023/11/13 03:17:23;;;;;;;0.70;0.70;;;-0.90;99.90;;;;;;5070147;28;20227;-70
2023/11/13 03:19:49;;;;;;;0.80;0.80;;;-0.90;99.90;;;;;;5070356;28;20255;-69
2023/11/13 03:22:15;;;;;;;0.70;0.70;;;-1.00;99.90;;;;;;5050654;28;20201;-70
2023/11/13 03:24:41;;;;;;;0.60;0.60;;;-1.00;99.90;;;;;;5050038;28;20691;-70
2023/11/13 03:27:07;;;;;;;0.73;0.73;;;-1.00;99.90;;;;;;5049814;28;20217;-70
2023/11/13 03:29:33;;;;;;;0.80;0.80;;;-1.10;99.90;;;;;;5064810;28;20243;-68
2023/11/13 03:31:58;;;;;;;0.75;0.75;;;-1.10;99.90;;;;;;5069717;28;20223;-70
2023/11/13 03:34:24;;;;;;;0.68;0.68;;;-1.10;99.90;;;;;;5050800;28;20209;-69
2023/11/13 03:36:50;;;;;;;0.60;0.60;;;-1.20;99.90;;;;;;5069855;28;20208;-68
2023/11/13 03:39:16;;;;;;;0.60;0.60;;;-1.20;99.90;;;;;;5069825;28;20216;-69
2023/11/13 03:41:42;;;;;;;0.73;0.73;;;-1.20;99.90;;;;;;5069970;28;20246;-69
2023/11/13 03:44:07;;;;;;;0.70;0.70;;;-1.20;99.90;;;;;;5051939;28;20197;-68
2023/11/13 03:46:33;;;;;;;0.80;0.80;;;-1.20;99.90;;;;;;5069778;28;20588;-69
2023/11/13 03:48:59;;;;;;;0.65;0.65;;;-1.20;99.90;;;;;;5034649;28;20202;-69
2023/11/13 03:51:25;;;;;;;0.70;0.70;;;-1.30;99.90;;;;;;5049306;28;20665;-69
2023/11/13 03:53:52;;;;;;;0.80;0.80;;;-1.30;99.90;;;;;;5049544;28;20189;-68
2023/11/13 03:56:22;;;;;;;0.80;0.80;;;-1.30;99.90;;;;;;5054188;28;20757;-70
2023/11/13 03:58:49;;;;;;;0.70;0.70;;;-1.30;99.90;;;;;;5067999;28;20287;-70
2023/11/13 04:01:16;;;;;;;0.70;0.70;;;-1.30;99.90;;;;;;5060225;28;20204;-68
2023/11/13 04:03:42;;;;;;;0.70;0.70;;;-1.30;99.90;;;;;;5068872;28;20198;-70
2023/11/13 04:06:08;;;;;;;0.70;0.70;;;-1.30;99.90;;;;;;5069052;28;20211;-69
2023/11/13 04:08:34;;;;;;;1.23;1.05;;;-1.30;99.90;;;;;;5069317;28;20300;-69
2023/11/13 04:11:03;;;;;;;0.70;0.70;;;-1.20;99.90;;;;;;5069283;28;20661;-69
2023/11/13 04:13:29;;;;;;;0.73;0.73;;;-1.30;99.90;;;;;;5067905;28;20735;-68
2023/11/13 04:15:57;;;;;;;0.70;0.70;;;-1.30;99.90;;;;;;5069521;28;20204;-68
2023/11/13 04:18:23;;;;;;;0.70;0.70;;;-1.30;99.90;;;;;;5052604;28;20259;-68
2023/11/13 04:20:49;;;;;;;0.70;0.70;;;-1.30;99.90;;;;;;5049591;28;20661;-68
2023/11/13 04:23:15;;;;;;;0.77;0.77;;;-1.30;99.90;;;;;;5047752;28;20286;-69
2023/11/13 04:25:46;;;;;;;0.70;0.70;;;-1.30;99.90;;;;;;5063396;28;20212;-69
2023/11/13 04:28:13;;;;;;;0.60;0.60;;;-1.30;99.90;;;;;;5067805;28;20201;-68
2023/11/13 04:30:39;;;;;;;0.75;0.75;;;-1.30;99.90;;;;;;5069109;28;20663;-72
2023/11/13 04:33:05;;;;;;;0.70;0.70;;;-1.30;99.90;;;;;;5069247;28;20299;-72
2023/11/13 04:35:31;;;;;;;0.73;0.73;;;-1.30;99.90;;;;;;5068850;28;20243;-73
2023/11/13 04:37:56;;;;;;;0.70;0.70;;;-1.30;99.90;;;;;;5069117;28;20553;-71
2023/11/13 04:40:22;;;;;;;0.70;0.70;;;-1.40;99.90;;;;;;5068811;28;20232;-72
2023/11/13 04:42:48;;;;;;;0.60;0.60;;;-1.50;99.90;;;;;;5069029;28;20298;-72
2023/11/13 04:45:13;;;;;;;0.70;0.70;;;-1.50;99.90;;;;;;5050633;28;20205;-71
2023/11/13 04:47:39;;;;;;;1.13;1.13;;;-1.60;99.90;;;;;;5048916;28;20196;-72
2023/11/13 04:50:05;;;;;;;4.68;2.08;;;-1.60;99.90;;;;;;5048877;28;20225;-72
2023/11/13 04:52:32;;;;;;;1.42;1.33;;;-1.60;99.90;;;;;;5066700;28;20679;-72
2023/11/13 04:54:57;;;;;;;2.38;1.63;;;-1.60;99.90;;;;;;5068774;28;20747;-72
2023/11/13 04:57:23;;;;;;;0.93;0.93;;;-1.60;99.90;;;;;;5085735;28;20304;-72
2023/11/13 04:59:50;;;;;;;1.08;1.05;;;-1.60;99.90;;;;;;5089041;28;20677;-72
2023/11/13 05:02:15;;;;;;;0.80;0.80;;;-1.70;99.90;;;;;;5088717;28;20227;-72
2023/11/13 05:04:45;;;;;;;0.68;0.68;;;-1.70;99.90;;;;;;5088863;28;20223;-72
2023/11/13 05:07:11;;;;;;;0.80;0.80;;;-1.80;99.90;;;;;;5088530;28;20200;-71
2023/11/13 05:09:36;;;;;;;0.80;0.80;;;-1.80;99.90;;;;;;5088696;28;20249;-72
2023/11/13 05:12:02;;;;;;;0.80;0.80;;;-1.80;99.90;;;;;;5088714;28;20192;-72
2023/11/13 05:14:28;;;;;;;0.70;0.70;;;-1.90;99.90;;;;;;5072514;28;20664;-72
2023/11/13 05:16:57;;;;;;;0.88;0.88;;;-1.90;99.90;;;;;;5068470;28;20208;-72
2023/11/13 05:19:23;;;;;;;0.77;0.77;;;-1.90;99.90;;;;;;5068297;28;20215;-73
2023/11/13 05:21:49;;;;;;;0.80;0.80;;;-2.00;99.90;;;;;;5081819;28;20719;-72
2023/11/13 05:24:15;;;;;;;0.80;0.80;;;-2.00;99.90;;;;;;5088972;28;20289;-72
2023/11/13 05:26:41;;;;;;;0.70;0.70;;;-2.00;99.90;;;;;;5070299;28;20228;-71
2023/11/13 05:29:07;;;;;;;0.60;0.60;;;-2.10;99.90;;;;;;5088756;28;20207;-72
2023/11/13 05:31:33;;;;;;;0.80;0.80;;;-2.10;99.90;;;;;;5088488;28;20582;-72
2023/11/13 05:33:59;;;;;;;0.70;0.70;;;-2.10;99.90;;;;;;5088553;28;20196;-72
2023/11/13 05:36:24;;;;;;;0.80;0.80;;;-2.20;99.90;;;;;;5070567;28;20992;-72
2023/11/13 05:38:50;;;;;;;0.80;0.80;;;-2.20;99.90;;;;;;5088665;28;20299;-72
2023/11/13 05:41:16;;;;;;;0.77;0.77;;;-2.20;99.90;;;;;;5088771;28;20196;-70
2023/11/13 05:43:41;;;;;;;0.80;0.80;;;-2.20;99.90;;;;;;5088714;28;20203;-70
2023/11/13 05:46:07;;;;;;;0.80;0.80;;;-2.10;99.90;;;;;;5088722;28;20682;-70
2023/11/13 05:48:33;;;;;;;0.77;0.77;;;-2.00;99.90;;;;;;5088165;28;20215;-69
2023/11/13 05:50:59;;;;;;;0.70;0.70;;;-1.90;99.90;;;;;;5088644;28;20847;-71
2023/11/13 05:53:25;;;;;;;0.70;0.70;;;-1.90;99.90;;;;;;5088371;28;20578;-70
2023/11/13 05:55:51;;;;;;;0.70;0.70;;;-1.90;99.90;;;;;;5083583;28;20224;-70
2023/11/13 05:58:17;;;;;;;0.70;0.70;;;-1.90;99.90;;;;;;5071104;28;20197;-70
2023/11/13 06:00:43;;;;;;;0.70;0.70;;;-1.80;99.90;;;;;;5071872;28;20211;-71
2023/11/13 06:03:10;;;;;;;0.70;0.70;;;-1.90;99.90;;;;;;5071670;28;20185;-70
2023/11/13 06:05:35;;;;;;;0.73;0.73;;;-1.80;99.90;;;;;;5071500;28;20546;-69
2023/11/13 06:08:01;;;;;;;0.80;0.80;;;-1.70;99.90;;;;;;5071915;28;20224;-70
2023/11/13 06:10:27;;;;;;;0.70;0.70;;;-1.70;99.90;;;;;;5071270;28;20540;-70
2023/11/13 06:12:53;;;;;;;0.80;0.80;;;-1.70;99.90;;;;;;5071737;28;20668;-69
2023/11/13 06:15:20;;;;;;;0.70;0.70;;;-1.60;99.90;;;;;;5071087;28;20204;-69
2023/11/13 06:17:46;;;;;;;0.70;0.70;;;-1.60;99.90;;;;;;5071276;28;20808;-70
2023/11/13 06:20:13;;;;;;;0.65;0.65;;;-1.70;99.90;;;;;;5071481;28;20686;-69
2023/11/13 06:22:42;;;;;;;0.70;0.70;;;-1.80;99.90;;;;;;5071298;28;20670;-70
2023/11/13 06:25:10;;;;;;;0.70;0.70;;;-1.70;99.90;;;;;;5071454;28;20691;-69
2023/11/13 06:27:36;;;;;;;0.70;0.70;;;-1.70;99.90;;;;;;5071223;28;20266;-70
2023/11/13 06:30:03;;;;;;;0.60;0.60;;;-1.60;99.90;;;;;;5053307;28;20208;-69
2023/11/13 06:32:29;;;;;;;0.70;0.70;;;-1.60;99.90;;;;;;5071136;28;20211;-69
2023/11/13 06:34:55;;;;;;;0.80;0.80;;;-1.60;99.90;;;;;;5071336;28;20213;-70
2023/11/13 06:37:21;;;;;;;0.70;0.70;;;-1.70;99.90;;;;;;5070676;28;20192;-70
2023/11/13 06:39:47;;;;;;;0.60;0.60;;;-1.70;99.90;;;;;;5071056;28;20264;-70
2023/11/13 06:42:12;;;;;;;0.68;0.68;;;-1.70;99.90;;;;;;5071081;28;20288;-69
2023/11/13 06:44:44;;;;;;;0.85;0.85;;;-1.80;99.90;;;;;;5070643;28;20622;-69
2023/11/13 06:47:09;;;;;;;0.65;0.65;;;-1.80;99.90;;;;;;5070879;28;20354;-70
2023/11/13 06:49:38;;;;;;;0.70;0.70;;;-1.90;99.90;;;;;;5070835;28;20271;-69
2023/11/13 06:52:08;;;;;;;0.80;0.80;;;-1.90;99.90;;;;;;5070922;28;20576;-70
2023/11/13 06:54:35;;;;;;;0.70;0.70;;;-1.90;99.90;;;;;;5070708;28;20204;-70
2023/11/13 06:57:01;;;;;;;0.85;0.85;;;-2.00;99.90;;;;;;5084603;28;20309;-71
2023/11/13 06:59:26;;;;;;;0.70;0.70;;;-2.10;99.90;;;;;;5090752;28;20215;-69
2023/11/13 07:01:52;;;;;;;0.80;0.80;;;-2.10;99.90;;;;;;5090748;28;20202;-70
2023/11/13 07:04:18;;;;;;;0.80;0.80;;;-2.10;99.90;;;;;;5090673;28;20207;-70
2023/11/13 07:06:45;;;;;;;0.80;0.80;;;-2.20;99.90;;;;;;5076467;28;20193;-71
2023/11/13 07:09:11;;;;;;;0.70;0.70;;;-2.20;99.90;;;;;;5069409;28;20675;-70
2023/11/13 07:11:44;;;;;;;0.82;0.82;;;-2.30;99.90;;;;;;5070646;28;20210;-70
2023/11/13 07:14:11;;;;;;;0.88;0.88;;;-2.30;99.90;;;;;;5082797;28;20226;-68
2023/11/13 07:16:37;;;;;;;0.80;0.80;;;-2.30;99.90;;;;;;5090832;28;20666;-69
2023/11/13 07:19:03;;;;;;;0.80;0.80;;;-2.20;99.90;;;;;;5090474;28;20235;-70
2023/11/13 07:21:32;;;;;;;0.88;0.88;;;-2.30;99.90;;;;;;5090585;28;20250;-70
2023/11/13 07:24:05;;;;;;;0.70;0.70;;;-2.20;99.90;;;;;;5090305;28;20246;-70
2023/11/13 07:26:31;;;;;;;0.75;0.75;;;-2.20;99.90;;;;;;5089024;28;20314;-71
2023/11/13 07:28:58;;;;;;;0.80;0.80;;;-2.10;99.90;;;;;;5090335;28;20676;-70
2023/11/13 07:31:24;;;;;;;0.80;0.80;;;-2.10;99.90;;;;;;5089899;28;20188;-70
2023/11/13 07:33:50;;;;;;;0.80;0.80;;;-1.90;99.90;;;;;;5074414;28;20284;-70
2023/11/13 07:36:16;;;;;;;0.63;0.63;;;-1.80;99.90;;;;;;5069831;28;20295;-70
2023/11/13 07:38:45;;;;;;;0.60;0.60;;;-1.80;99.90;;;;;;5069841;28;20184;-69
2023/11/13 07:41:11;;;;;;;0.70;0.70;;;-1.70;99.90;;;;;;5087314;28;20200;-70
2023/11/13 07:43:44;;;;;;;0.65;0.65;;;-1.70;99.90;;;;;;5090340;28;20188;-71
2023/11/13 07:46:11;;;;;;;0.77;0.77;;;-1.70;99.90;;;;;;5089937;28;20204;-69
2023/11/13 07:48:40;;;;;;;0.70;0.70;;;-1.70;99.90;;;;;;5089361;28;20334;-70
2023/11/13 07:51:07;;;;;;;0.95;0.95;;;-1.70;99.90;;;;;;5089446;28;20697;-71
2023/11/13 07:53:35;;;;;;;0.70;0.70;;;-1.70;99.90;;;;;;5089522;28;20191;-71
2023/11/13 07:56:01;;;;;;;1.20;1.10;;;-1.70;99.90;;;;;;5083381;28;20236;-70
2023/11/13 07:58:27;;;;;;;0.80;0.80;;;-1.60;99.90;;;;;;5069362;28;20211;-70
2023/11/13 08:00:53;;;;;;;1.23;1.15;;;-1.60;99.90;;;;;;5069800;28;20200;-69
2023/11/13 08:03:20;;;;;;;3.00;2.22;;;-1.50;99.90;;;;;;5067754;28;20216;-70
2023/11/13 08:05:46;;;;;;;0.70;0.70;;;-1.40;99.90;;;;;;5069474;28;20287;-68
2023/11/13 08:08:13;;;;;;;0.70;0.70;;;-1.30;99.90;;;;;;5051426;28;20284;-68
2023/11/13 08:10:40;;;;;;;0.70;0.70;;;-1.20;99.90;;;;;;5069415;28;20238;-69
2023/11/13 08:13:06;;;;;;;0.60;0.60;;;-1.20;99.90;;;;;;5051519;28;20201;-69
2023/11/13 08:15:32;;;;;;;0.77;0.77;;;-1.10;99.90;;;;;;5069430;28;20216;-68
2023/11/13 08:17:58;;;;;;;0.77;0.77;;;-1.00;99.90;;;;;;5069625;28;20546;-68
2023/11/13 08:20:28;;;;;;;0.70;0.70;;;-1.00;99.90;;;;;;5068853;28;20196;-68
2023/11/13 08:22:56;;;;;;;0.90;0.90;;;-0.90;99.90;;;;;;5069277;28;20200;-68
2023/11/13 08:25:23;;;;;;;0.93;0.93;;;-0.90;99.90;;;;;;5069152;28;20672;-68
2023/11/13 08:27:52;;;;;;;1.10;1.10;;;-0.90;99.90;;;;;;5069039;28;20196;-68
2023/11/13 08:30:22;;;;;;;0.90;0.90;;;-0.90;99.90;;;;;;5033367;28;20201;-70
2023/11/13 08:32:51;;;;;;;0.70;0.70;;;-0.90;99.90;;;;;;5049028;28;20254;-69
2023/11/13 08:35:17;;;;;;;0.77;0.77;;;-0.80;99.90;;;;;;5048828;28;20205;-68
2023/11/13 08:37:45;;;;;;;0.70;0.70;;;-0.70;99.90;;;;;;5068679;28;21014;-69
2023/11/13 08:40:14;;;;;;;1.40;1.23;;;-0.60;99.90;;;;;;5051057;28;20291;-69
2023/11/13 08:42:41;;;;;;;0.82;0.82;;;-0.60;99.90;;;;;;5050665;28;20203;-71
2023/11/13 08:45:17;;;;;;;0.70;0.70;;;-0.60;99.90;;;;;;5068927;28;20655;-70
2023/11/13 08:47:45;;;;;;;0.98;0.98;;;-0.60;99.90;;;;;;5068977;28;20201;-69
2023/11/13 08:50:14;;;;;;;0.73;0.73;;;-0.40;99.90;;;;;;5069009;28;20619;-70
2023/11/13 08:52:43;;;;;;;0.70;0.70;;;-0.40;99.90;;;;;;5050625;28;20196;-69
2023/11/13 08:55:13;;;;;;;0.70;0.70;;;-0.40;99.90;;;;;;5050746;28;20216;-68
2023/11/13 08:57:41;;;;;;;0.65;0.65;;;-0.30;99.90;;;;;;5087083;28;20703;-68
2023/11/13 09:00:24;;;;;;;0.68;0.68;;;-0.30;99.90;;;;;;5068749;28;20188;-69
2023/11/13 09:02:54;;;;;;;0.65;0.65;;;-0.20;99.90;;;;;;5050781;28;20200;-69
2023/11/13 09:05:25;;;;;;;0.82;0.82;;;-0.10;99.90;;;;;;5071320;28;20196;-68
2023/11/13 09:07:51;;;;;;;0.70;0.70;;;-0.10;99.90;;;;;;5088868;28;20671;-69
2023/11/13 09:10:21;;;;;;;0.60;0.60;;;0.00;99.90;;;;;;5088932;28;20738;-69
2023/11/13 09:12:47;;;;;;;1.52;1.27;;;0.00;99.90;;;;;;5088910;28;20611;-68
2023/11/13 09:15:18;;;;;;;1.05;1.02;;;0.10;99.90;;;;;;5088755;28;20223;-68
2023/11/13 09:17:45;;;;;;;0.70;0.70;;;0.20;99.90;;;;;;5089181;28;20231;-69
2023/11/13 09:20:17;;;;;;;0.70;0.70;;;0.30;99.90;;;;;;5088997;28;20201;-69
2023/11/13 09:22:43;;;;;;;0.60;0.60;;;0.40;99.90;;;;;;5088694;28;20201;-68
2023/11/13 09:25:13;;;;;;;0.70;0.70;;;0.50;99.90;;;;;;5082880;28;20204;-69
2023/11/13 09:27:48;;;;;;;0.80;0.80;;;0.60;99.90;;;;;;5068413;28;20204;-69
2023/11/13 09:30:15;;;;;;;0.80;0.80;;;0.70;99.90;;;;;;5068313;28;20207;-69
2023/11/13 09:32:44;;;;;;;0.80;0.80;;;0.80;99.90;;;;;;5079674;28;20202;-70
2023/11/13 09:35:18;;;;;;;0.70;0.70;;;0.90;99.90;;;;;;5092418;28;20302;-69
2023/11/13 09:37:45;;;;;;;0.70;0.70;;;0.90;99.90;;;;;;5092341;28;20368;-70
2023/11/13 09:40:17;;;;;;;0.63;0.63;;;1.00;99.90;;;;;;5092343;28;20256;-69
2023/11/13 09:43:36;;;;;;;0.73;0.73;;;1.10;99.90;;;;;;5092404;28;20203;-70
2023/11/13 09:46:06;;;;;;;0.60;0.60;;;1.10;99.90;;;;;;5085088;28;20220;-69
2023/11/13 09:48:43;;;;;;;0.70;0.70;;;1.30;99.90;;;;;;5073620;28;20671;-70
2023/11/13 09:51:13;;;;;;;0.80;0.80;;;1.40;99.90;;;;;;5073901;28;20651;-69
2023/11/13 09:53:42;;;;;;;0.70;0.70;;;1.50;99.90;;;;;;5092130;28;20723;-69
2023/11/13 09:56:11;;;;;;;0.73;0.73;;;1.70;99.90;;;;;;5084762;28;20683;-69
2023/11/13 09:58:38;;;;;;;0.52;0.52;;;1.70;99.90;;;;;;5071422;28;20612;-70
2023/11/13 10:01:07;;;;;;;0.60;0.60;;;1.80;99.90;;;;;;5071834;28;20339;-69
2023/11/13 10:03:34;;;;;;;0.57;0.57;;;1.90;99.90;;;;;;5071621;28;20237;-69
2023/11/13 10:06:01;;;;;;;0.70;0.70;;;2.20;99.90;;;;;;5071747;28;20200;-69
2023/11/13 10:08:29;;;;;;;0.70;0.70;;;2.20;99.90;;;;;;5053744;28;20204;-70
2023/11/13 10:10:55;;;;;;;0.80;0.80;;;2.30;99.90;;;;;;5071670;28;20201;-70
2023/11/13 10:13:23;;;;;;;0.80;0.80;;;2.30;99.90;;;;;;5070125;28;20934;-71
2023/11/13 10:15:49;;;;;;;1.33;1.23;;;2.30;99.90;;;;;;5071479;28;20782;-70
2023/11/13 10:18:15;;;;;;;0.82;0.82;;;2.30;99.90;;;;;;5071951;28;20215;-70
2023/11/13 10:20:43;;;;;;;0.85;0.85;;;2.40;99.90;;;;;;5071858;28;20557;-69
2023/11/13 10:23:09;;;;;;;1.23;1.17;;;2.60;99.90;;;;;;5034011;28;20193;-69
2023/11/13 10:25:50;;;;;;;0.60;0.60;;;2.70;99.90;;;;;;5051612;28;20587;-69
2023/11/13 10:28:21;;;;;;;0.60;0.60;;;2.60;99.90;;;;;;5055098;28;20198;-69
2023/11/13 10:30:58;;;;;;;0.50;0.50;;;2.50;99.90;;;;;;5071538;28;20247;-70
2023/11/13 10:33:25;;;;;;;0.60;0.60;;;2.40;99.90;;;;;;5053201;28;20665;-70
2023/11/13 10:35:52;;;;;;;0.70;0.70;;;2.40;99.90;;;;;;5053028;28;20749;-71
2023/11/13 10:38:20;;;;;;;0.73;0.73;;;2.60;99.90;;;;;;5053136;28;20231;-70
2023/11/13 10:40:53;;;;;;;0.60;0.60;;;2.50;99.90;;;;;;5071413;28;20197;-71
2023/11/13 10:43:33;;;;;;;0.68;0.68;;;2.50;99.90;;;;;;5052027;28;20196;-72
2023/11/13 10:46:00;;;;;;;0.60;0.60;;;2.50;99.90;;;;;;5070173;28;20203;-70
2023/11/13 10:48:45;;;;;;;0.70;0.70;;;2.50;99.90;;;;;;5070475;28;20189;-70
2023/11/13 10:51:14;;;;;;;0.60;0.60;;;2.30;99.90;;;;;;5061713;28;20236;-69
2023/11/13 10:53:42;;;;;;;0.60;0.60;;;2.20;99.90;;;;;;5050611;28;20656;-70
2023/11/13 10:56:09;;;;;;;0.80;0.80;;;2.10;99.90;;;;;;5032988;28;20229;-69
2023/11/13 10:58:35;;;;;;;0.70;0.70;;;2.00;99.90;;;;;;5039816;28;20218;-69
2023/11/13 11:01:05;;;;;;;0.60;0.60;;;1.90;99.90;;;;;;5070873;28;20204;-70
2023/11/13 11:03:32;;;;;;;0.95;0.95;;;1.90;99.90;;;;;;5071211;28;20196;-69
2023/11/13 11:06:09;;;;;;;0.60;0.60;;;2.00;99.90;;;;;;5052923;28;20201;-70
2023/11/13 11:08:37;;;;;;;1.00;1.00;;;2.00;99.90;;;;;;5070643;28;20192;-69
2023/11/13 11:11:08;;;;;;;0.90;0.90;;;2.00;99.90;;;;;;5053212;28;20719;-71
2023/11/13 11:13:39;;;;;;;0.60;0.60;;;2.10;99.90;;;;;;5071250;28;20193;-71
2023/11/13 11:16:32;;;;;;;0.60;0.60;;;2.00;99.90;;;;;;5052726;28;20263;-70
2023/11/13 11:19:14;;;;;;;0.70;0.70;;;2.10;99.90;;;;;;5069775;28;20570;-69
2023/11/13 11:22:03;;;;;;;0.70;0.70;;;2.00;99.90;;;;;;5070394;28;20199;-70
2023/11/13 11:25:04;;;;;;;0.60;0.60;;;1.90;99.90;;;;;;5069778;28;20219;-70
2023/11/13 11:27:41;;;;;;;0.50;0.50;;;1.90;99.90;;;;;;5051875;28;20564;-69
2023/11/13 11:30:22;;;;;;;0.60;0.60;;;1.80;99.90;;;;;;5070222;28;20203;-72
2023/11/13 11:33:00;;;;;;;0.60;0.60;;;1.80;99.90;;;;;;5069843;28;20578;-71
2023/11/13 11:35:30;;;;;;;0.60;0.60;;;1.80;99.90;;;;;;5069357;28;20211;-71
2023/11/13 11:38:14;;;;;;;0.70;0.70;;;1.80;99.90;;;;;;5068999;28;20213;-72
2023/11/13 11:40:40;;;;;;;0.70;0.70;;;1.80;99.90;;;;;;5069268;28;20195;-70
2023/11/13 11:43:08;;;;;;;0.60;0.60;;;1.70;99.90;;;;;;5069501;28;20197;-71
2023/11/13 11:45:38;;;;;;;0.70;0.70;;;1.70;99.90;;;;;;5069493;28;20215;-69
2023/11/13 11:48:06;;;;;;;0.63;0.63;;;1.60;99.90;;;;;;5054952;28;20204;-70
2023/11/13 11:50:32;;;;;;;0.70;0.70;;;1.60;99.90;;;;;;5049122;28;20237;-70
2023/11/13 11:52:57;;;;;;;0.70;0.70;;;1.70;99.90;;;;;;5031420;28;20201;-71
2023/11/13 11:55:26;;;;;;;0.73;0.73;;;1.70;99.90;;;;;;5060706;28;20216;-69
2023/11/13 11:57:52;;;;;;;0.77;0.77;;;1.80;99.90;;;;;;5089227;28;20192;-69
2023/11/13 12:00:20;;;;;;;0.90;0.90;;;1.70;99.90;;;;;;5089482;28;20188;-71
2023/11/13 12:02:53;;;;;;;0.70;0.70;;;1.60;99.90;;;;;;5089626;28;20233;-70
2023/11/13 12:05:22;;;;;;;0.70;0.70;;;1.60;99.90;;;;;;5089042;28;20253;-72
2023/11/13 12:07:50;;;;;;;0.70;0.70;;;1.60;99.90;;;;;;5089360;28;20192;-71
2023/11/13 12:10:20;;;;;;;0.70;0.70;;;1.50;99.90;;;;;;5089464;28;20203;-71
2023/11/13 12:12:47;;;;;;;0.70;0.70;;;1.50;99.90;;;;;;5089278;28;20200;-71
2023/11/13 12:15:14;;;;;;;0.77;0.77;;;1.50;99.90;;;;;;5088930;28;20219;-71
2023/11/13 12:17:41;;;;;;;0.60;0.60;;;1.50;99.90;;;;;;5089299;28;20194;-71
2023/11/13 12:20:09;;;;;;;0.70;0.70;;;1.50;99.90;;;;;;5089038;28;20192;-70
2023/11/13 12:22:39;;;;;;;0.70;0.70;;;1.50;99.90;;;;;;5088838;28;20196;-70
2023/11/13 12:25:06;;;;;;;0.60;0.60;;;1.50;99.90;;;;;;5088863;28;20213;-71
2023/11/13 12:27:34;;;;;;;0.60;0.60;;;1.50;99.90;;;;;;5088740;28;20642;-71
2023/11/13 12:30:05;;;;;;;0.55;0.55;;;1.50;99.90;;;;;;5089299;28;20579;-70
2023/11/13 12:32:35;;;;;;;0.60;0.60;;;1.40;99.90;;;;;;5088820;28;20734;-71
2023/11/13 12:35:01;;;;;;;0.70;0.70;;;1.40;99.90;;;;;;5089003;28;20210;-70
2023/11/13 12:37:27;;;;;;;0.65;0.65;;;1.40;99.90;;;;;;5088629;28;20203;-70
2023/11/13 12:39:54;;;;;;;0.50;0.50;;;1.40;99.90;;;;;;5088665;28;20635;-69
2023/11/13 12:42:21;;;;;;;0.70;0.70;;;1.50;99.90;;;;;;5070525;28;20750;-73
2023/11/13 12:44:46;;;;;;;1.45;1.35;;;1.40;99.90;;;;;;5070463;28;20200;-73
2023/11/13 12:47:12;;;;;;;0.98;0.98;;;1.40;99.90;;;;;;5068637;28;20193;-73
2023/11/13 12:49:39;;;;;;;0.85;0.85;;;1.40;99.90;;;;;;5068471;28;20253;-74
2023/11/13 12:52:06;;;;;;;0.70;0.70;;;1.30;99.90;;;;;;5083856;28;20285;-73
2023/11/13 12:54:32;;;;;;;0.80;0.80;;;1.30;99.90;;;;;;5088358;28;20231;-73